Time;durP1;ratioP1;P1;durP2;ratioP2;P2;SDS_P1;SDS_P2;PMS_P1;PMS_P2;Temp;Humidity;BMP_temperature;BMP_pressure;BME280_temperature;BME280_humidity;BME280_pressure;Samples;Min_cycle;Max_cycle;Signal;HPM_P1;HPM_P2
2022/03/19 00:01:21;;;;;;;5.67;3.93;;;8.90;54.40;;;;;;5022282;28;20531;-43
2022/03/19 00:03:48;;;;;;;4.90;2.87;;;8.90;53.90;;;;;;5016573;28;20464;-43
2022/03/19 00:06:15;;;;;;;4.30;3.03;;;8.90;54.30;;;;;;5014516;28;20887;-43
2022/03/19 00:08:42;;;;;;;5.13;3.23;;;8.90;54.20;;;;;;5018690;28;20466;-43
2022/03/19 00:11:09;;;;;;;5.67;3.20;;;8.90;54.10;;;;;;5034739;28;20445;-43
2022/03/19 00:13:36;;;;;;;5.67;3.03;;;8.90;54.40;;;;;;5006898;28;20455;-43
2022/03/19 00:16:04;;;;;;;8.77;4.30;;;8.90;54.70;;;;;;5017182;28;20539;-43
2022/03/19 00:18:31;;;;;;;4.90;3.60;;;8.90;54.70;;;;;;5008350;28;20452;-43
2022/03/19 00:20:58;;;;;;;4.33;2.50;;;8.90;54.70;;;;;;5023181;28;20494;-43
2022/03/19 00:23:25;;;;;;;3.77;3.30;;;8.80;54.80;;;;;;5020038;28;20821;-43
2022/03/19 00:25:52;;;;;;;5.50;2.50;;;8.80;54.50;;;;;;5021921;28;20956;-42
2022/03/19 00:28:19;;;;;;;4.60;3.33;;;8.80;54.80;;;;;;5018584;28;20463;-42
2022/03/19 00:30:47;;;;;;;4.00;2.40;;;8.80;54.70;;;;;;5015917;28;20484;-42
2022/03/19 00:33:14;;;;;;;4.77;2.53;;;8.80;54.90;;;;;;5008689;28;20455;-42
2022/03/19 00:35:41;;;;;;;5.50;2.27;;;8.80;54.80;;;;;;5024500;28;20452;-42
2022/03/19 00:38:07;;;;;;;3.33;2.57;;;8.70;54.70;;;;;;5020968;28;20538;-42
2022/03/19 00:40:35;;;;;;;6.00;2.40;;;8.70;55.00;;;;;;5021445;28;20539;-42
2022/03/19 00:43:03;;;;;;;5.90;2.90;;;8.70;54.60;;;;;;5019101;28;20471;-42
2022/03/19 00:45:29;;;;;;;4.37;3.10;;;8.70;54.40;;;;;;5020484;28;20459;-42
2022/03/19 00:47:57;;;;;;;4.20;2.80;;;8.70;54.80;;;;;;5021037;28;20499;-42
2022/03/19 00:50:24;;;;;;;5.50;2.93;;;8.70;54.70;;;;;;5022231;28;20497;-42
2022/03/19 00:52:50;;;;;;;3.13;2.13;;;8.70;54.80;;;;;;5022999;28;20960;-42
2022/03/19 00:55:17;;;;;;;2.80;2.40;;;8.70;54.60;;;;;;4994285;28;20455;-42
2022/03/19 00:57:46;;;;;;;4.97;2.83;;;8.70;54.60;;;;;;5007016;28;20866;-43
2022/03/19 01:00:15;;;;;;;5.53;3.00;;;8.70;55.00;;;;;;5035717;28;20451;-42
2022/03/19 01:02:45;;;;;;;3.10;2.07;;;8.60;55.40;;;;;;5002017;28;20968;-42
2022/03/19 01:05:13;;;;;;;9.10;3.43;;;8.60;55.60;;;;;;5026278;28;20463;-42
2022/03/19 01:07:42;;;;;;;5.83;2.67;;;8.70;55.90;;;;;;5023128;28;20837;-42
2022/03/19 01:10:11;;;;;;;3.63;2.30;;;8.70;55.60;;;;;;5019683;28;20487;-42
2022/03/19 01:12:38;;;;;;;4.00;2.40;;;8.70;56.00;;;;;;5017540;28;20887;-42
2022/03/19 01:15:05;;;;;;;5.60;2.80;;;8.70;55.70;;;;;;5007585;28;20447;-42
2022/03/19 01:17:32;;;;;;;4.40;3.33;;;8.70;55.70;;;;;;5018009;28;20868;-42
2022/03/19 01:20:01;;;;;;;4.13;2.30;;;8.70;55.90;;;;;;5019080;28;20501;-42
2022/03/19 01:22:28;;;;;;;3.97;2.30;;;8.70;55.90;;;;;;5023093;28;20529;-42
2022/03/19 01:24:57;;;;;;;6.07;2.30;;;8.60;55.90;;;;;;5019477;28;20511;-42
2022/03/19 01:27:23;;;;;;;3.97;2.60;;;8.60;55.90;;;;;;5020123;28;20562;-42
2022/03/19 01:29:50;;;;;;;4.63;2.50;;;8.60;56.10;;;;;;5004738;28;20494;-42
2022/03/19 01:32:17;;;;;;;4.63;2.47;;;8.60;56.40;;;;;;5018949;28;21067;-42
2022/03/19 01:34:44;;;;;;;6.40;2.67;;;8.60;56.30;;;;;;5018654;28;20468;-42
2022/03/19 01:37:11;;;;;;;3.80;3.13;;;8.50;56.20;;;;;;5035711;28;20959;-42
2022/03/19 01:39:38;;;;;;;8.93;4.33;;;8.50;56.40;;;;;;5020088;28;20501;-42
2022/03/19 01:42:05;;;;;;;10.33;2.80;;;8.50;56.40;;;;;;5022477;28;20463;-42
2022/03/19 01:44:32;;;;;;;3.17;2.30;;;8.50;56.70;;;;;;5020887;28;20631;-42
2022/03/19 01:47:04;;;;;;;7.77;2.83;;;8.50;56.50;;;;;;5019509;28;20484;-42
2022/03/19 01:49:31;;;;;;;5.50;2.33;;;8.50;57.00;;;;;;5018406;28;20494;-42
2022/03/19 01:51:58;;;;;;;4.23;3.40;;;8.50;56.80;;;;;;5021249;28;20819;-42
2022/03/19 01:54:32;;;;;;;3.80;2.90;;;8.50;56.90;;;;;;5013220;28;20472;-42
2022/03/19 01:57:00;;;;;;;4.50;2.50;;;8.50;56.60;;;;;;5038930;28;20459;-42
2022/03/19 01:59:32;;;;;;;6.10;3.00;;;8.40;56.50;;;;;;5022406;28;20975;-42
2022/03/19 02:01:59;;;;;;;5.33;2.87;;;8.40;56.70;;;;;;5031959;28;20542;-42
2022/03/19 02:04:26;;;;;;;5.20;2.70;;;8.40;56.70;;;;;;5018807;28;21063;-42
2022/03/19 02:06:54;;;;;;;5.37;2.60;;;8.50;56.80;;;;;;5017947;28;20463;-42
2022/03/19 02:09:21;;;;;;;5.37;2.80;;;8.50;57.10;;;;;;5021609;28;20467;-42
2022/03/19 02:11:51;;;;;;;4.50;2.90;;;8.50;57.50;;;;;;5001577;28;20456;-42
2022/03/19 02:14:18;;;;;;;6.33;3.03;;;8.50;57.50;;;;;;5021334;28;20755;-42
2022/03/19 02:16:49;;;;;;;5.60;2.80;;;8.40;56.90;;;;;;5015464;28;20459;-42
2022/03/19 02:19:16;;;;;;;3.50;2.90;;;8.40;57.70;;;;;;5020668;28;20472;-42
2022/03/19 02:21:48;;;;;;;5.80;2.60;;;8.30;57.30;;;;;;5019840;28;20542;-42
2022/03/19 02:27:02;;;;;;;7.90;3.40;;;8.30;58.00;;;;;;5017468;28;20459;-42
2022/03/19 02:29:28;;;;;;;4.73;3.03;;;8.30;57.80;;;;;;5016182;28;20452;-42
2022/03/19 02:31:58;;;;;;;4.80;3.17;;;8.30;57.80;;;;;;5015289;28;20457;-42
2022/03/19 02:34:26;;;;;;;4.50;2.60;;;8.30;57.90;;;;;;5022374;28;20452;-42
2022/03/19 02:36:53;;;;;;;6.73;3.00;;;8.30;58.10;;;;;;5017284;28;20475;-42
2022/03/19 02:39:32;;;;;;;5.90;3.00;;;8.30;58.10;;;;;;5003664;28;20982;-42
2022/03/19 02:42:02;;;;;;;4.83;1.93;;;8.30;58.10;;;;;;5022178;28;20455;-42
2022/03/19 02:44:30;;;;;;;6.17;2.60;;;8.30;58.20;;;;;;5020600;28;20463;-42
2022/03/19 02:46:59;;;;;;;5.73;3.30;;;8.20;58.10;;;;;;5031997;28;20476;-42
2022/03/19 02:49:26;;;;;;;7.20;3.20;;;8.20;58.50;;;;;;5019912;28;20966;-42
2022/03/19 02:51:54;;;;;;;5.87;3.23;;;8.30;58.90;;;;;;5022784;28;20456;-42
2022/03/19 02:54:26;;;;;;;4.93;3.10;;;8.30;58.50;;;;;;5019140;28;20443;-42
2022/03/19 02:56:54;;;;;;;4.40;2.70;;;8.30;58.70;;;;;;5022266;28;20462;-42
2022/03/19 02:59:27;;;;;;;7.07;2.80;;;8.30;58.80;;;;;;5021128;28;20465;-42
2022/03/19 03:01:57;;;;;;;5.67;3.10;;;8.30;58.70;;;;;;5020064;28;20466;-42
2022/03/19 03:04:24;;;;;;;5.13;3.10;;;8.30;58.80;;;;;;5017109;28;20444;-42
2022/03/19 03:06:53;;;;;;;5.77;3.20;;;8.30;59.00;;;;;;5018404;28;20470;-42
2022/03/19 03:09:22;;;;;;;7.30;3.30;;;8.30;59.50;;;;;;5021212;28;20455;-43
2022/03/19 03:11:50;;;;;;;9.83;4.00;;;8.30;59.40;;;;;;5016814;28;20578;-43
2022/03/19 03:14:20;;;;;;;7.33;3.27;;;8.20;59.20;;;;;;5016208;28;20511;-43
2022/03/19 03:16:48;;;;;;;6.10;3.37;;;8.30;59.50;;;;;;5018417;28;20546;-43
2022/03/19 03:19:16;;;;;;;6.90;3.70;;;8.30;59.70;;;;;;5015284;28;20453;-42
2022/03/19 03:21:43;;;;;;;12.23;3.70;;;8.30;59.80;;;;;;5015147;28;20973;-42
2022/03/19 03:24:11;;;;;;;6.40;3.20;;;8.20;59.60;;;;;;5019115;28;21020;-42
2022/03/19 03:26:38;;;;;;;6.90;3.43;;;8.20;59.80;;;;;;5018180;28;20467;-42
2022/03/19 03:29:06;;;;;;;6.10;3.80;;;8.20;60.10;;;;;;5019244;28;20858;-42
2022/03/19 03:31:34;;;;;;;10.00;4.07;;;8.20;60.50;;;;;;5014238;28;20499;-42
2022/03/19 03:34:02;;;;;;;5.37;3.50;;;8.20;60.20;;;;;;5016162;28;20460;-42
2022/03/19 03:36:28;;;;;;;11.83;4.30;;;8.20;60.00;;;;;;5016230;28;20460;-46
2022/03/19 03:38:55;;;;;;;8.73;3.47;;;8.20;60.30;;;;;;5002779;28;20460;-46
2022/03/19 03:41:22;;;;;;;6.90;3.83;;;8.20;60.50;;;;;;5016362;28;20463;-46
2022/03/19 03:43:49;;;;;;;6.40;4.00;;;8.20;60.20;;;;;;5014493;28;20474;-46
2022/03/19 03:46:15;;;;;;;8.63;4.00;;;8.20;60.00;;;;;;5014855;28;20491;-44
2022/03/19 03:48:42;;;;;;;6.50;3.40;;;8.20;60.20;;;;;;5016235;28;20551;-43
2022/03/19 03:51:12;;;;;;;8.93;4.03;;;8.10;60.30;;;;;;5014088;28;20879;-43
2022/03/19 03:53:39;;;;;;;6.23;5.00;;;8.10;60.80;;;;;;5016756;28;20831;-43
2022/03/19 03:56:09;;;;;;;8.07;4.13;;;8.20;60.70;;;;;;5035219;28;20876;-43
2022/03/19 03:58:36;;;;;;;8.03;3.33;;;8.20;60.40;;;;;;5023343;28;20490;-43
2022/03/19 04:01:03;;;;;;;8.63;4.10;;;8.10;60.50;;;;;;5024043;28;20906;-43
2022/03/19 04:03:30;;;;;;;8.60;3.70;;;8.10;60.60;;;;;;5023140;28;20451;-43
2022/03/19 04:05:57;;;;;;;6.43;4.00;;;8.10;60.90;;;;;;5021553;28;20464;-43
2022/03/19 04:08:23;;;;;;;5.60;3.43;;;8.10;60.60;;;;;;5015702;28;20460;-43
2022/03/19 04:10:50;;;;;;;8.77;3.60;;;8.10;60.90;;;;;;5020433;28;20490;-43
2022/03/19 04:13:17;;;;;;;5.00;3.60;;;8.00;60.50;;;;;;5021439;28;20470;-43
2022/03/19 04:15:44;;;;;;;5.67;3.77;;;8.00;60.70;;;;;;5018557;28;20605;-43
2022/03/19 04:18:13;;;;;;;4.20;3.33;;;8.00;61.00;;;;;;5023458;28;20463;-43
2022/03/19 04:20:40;;;;;;;5.10;3.07;;;8.00;61.00;;;;;;4999305;28;20820;-43
2022/03/19 04:23:07;;;;;;;6.97;4.10;;;8.00;60.70;;;;;;5020876;28;20463;-43
2022/03/19 04:25:34;;;;;;;8.40;2.70;;;7.90;60.90;;;;;;5039280;28;20547;-43
2022/03/19 04:28:01;;;;;;;6.20;3.90;;;7.90;60.90;;;;;;5020757;28;21006;-43
2022/03/19 04:30:29;;;;;;;8.60;3.90;;;7.90;61.00;;;;;;5023547;28;20513;-43
2022/03/19 04:33:00;;;;;;;4.60;3.10;;;7.90;61.10;;;;;;5019624;28;20466;-43
2022/03/19 04:38:16;;;;;;;4.67;3.00;;;7.90;60.80;;;;;;5019834;28;20459;-43
2022/03/19 04:40:44;;;;;;;5.47;3.07;;;7.80;61.20;;;;;;5017036;28;20923;-43
2022/03/19 04:43:11;;;;;;;5.60;2.63;;;7.80;61.30;;;;;;5021015;28;20470;-43
2022/03/19 04:45:39;;;;;;;7.27;3.00;;;7.80;61.10;;;;;;5019564;28;20470;-43
2022/03/19 04:48:08;;;;;;;4.67;2.87;;;7.80;61.20;;;;;;5007290;28;20487;-43
2022/03/19 04:50:40;;;;;;;5.43;2.70;;;7.80;61.00;;;;;;5005869;28;20579;-43
2022/03/19 04:53:08;;;;;;;4.17;3.03;;;7.80;61.50;;;;;;5020976;28;20468;-43
2022/03/19 04:55:36;;;;;;;10.60;3.30;;;7.70;61.10;;;;;;5021340;28;20459;-43
2022/03/19 04:58:04;;;;;;;3.50;2.40;;;7.70;61.20;;;;;;5018971;28;20822;-43
2022/03/19 05:00:32;;;;;;;3.97;2.20;;;7.70;61.20;;;;;;5015539;28;20821;-43
2022/03/19 05:03:03;;;;;;;3.43;2.60;;;7.70;61.50;;;;;;5018161;28;20462;-43
2022/03/19 05:05:30;;;;;;;4.60;2.90;;;7.60;61.70;;;;;;5021490;28;20513;-43
2022/03/19 05:07:57;;;;;;;3.97;2.50;;;7.60;61.50;;;;;;5007255;28;20474;-43
2022/03/19 05:13:10;;;;;;;3.93;2.40;;;7.60;61.40;;;;;;5017754;28;20591;-43
2022/03/19 05:15:37;;;;;;;4.40;2.87;;;7.60;61.60;;;;;;5033921;28;20457;-43
2022/03/19 05:18:04;;;;;;;4.43;1.90;;;7.60;61.80;;;;;;5033979;28;21113;-43
2022/03/19 05:20:34;;;;;;;10.50;2.77;;;7.50;62.20;;;;;;5016068;28;20525;-43
2022/03/19 05:23:01;;;;;;;2.40;2.20;;;7.50;62.00;;;;;;5021955;28;20548;-43
2022/03/19 05:25:28;;;;;;;3.00;2.33;;;7.50;61.80;;;;;;5016027;28;20460;-43
2022/03/19 05:27:55;;;;;;;6.20;2.40;;;7.50;61.80;;;;;;5018844;28;20461;-43
2022/03/19 05:30:22;;;;;;;4.60;2.47;;;7.40;62.40;;;;;;5014566;28;20968;-43
2022/03/19 05:32:49;;;;;;;3.80;2.20;;;7.40;62.10;;;;;;5017314;28;20460;-43
2022/03/19 05:35:18;;;;;;;5.53;2.30;;;7.40;62.30;;;;;;5003948;28;20464;-43
2022/03/19 05:37:47;;;;;;;2.77;2.17;;;7.40;61.90;;;;;;5016002;28;21109;-43
2022/03/19 05:40:14;;;;;;;4.83;2.13;;;7.40;62.40;;;;;;5020105;28;20463;-43
2022/03/19 05:42:42;;;;;;;5.80;2.47;;;7.30;62.50;;;;;;5018047;28;20467;-43
2022/03/19 05:45:15;;;;;;;5.27;1.90;;;7.30;62.30;;;;;;5016740;28;20467;-43
2022/03/19 05:47:43;;;;;;;3.03;2.20;;;7.30;62.50;;;;;;5016352;28;21054;-43
2022/03/19 05:50:10;;;;;;;4.03;1.90;;;7.30;62.70;;;;;;5034620;28;20463;-43
2022/03/19 05:52:37;;;;;;;3.00;1.97;;;7.30;62.70;;;;;;5006708;28;20959;-43
2022/03/19 05:55:04;;;;;;;5.20;2.60;;;7.30;63.00;;;;;;5018649;28;20479;-43
2022/03/19 05:57:31;;;;;;;2.40;2.17;;;7.30;63.10;;;;;;5018384;28;20471;-43
2022/03/19 05:59:58;;;;;;;3.87;2.77;;;7.30;63.30;;;;;;5016851;28;20448;-43
2022/03/19 06:02:25;;;;;;;4.27;2.30;;;7.30;63.00;;;;;;5018042;28;20475;-43
2022/03/19 06:04:52;;;;;;;4.70;2.20;;;7.30;62.70;;;;;;5021581;28;21052;-43
2022/03/19 06:07:20;;;;;;;4.13;2.97;;;7.30;62.70;;;;;;5015996;28;20474;-43
2022/03/19 06:09:46;;;;;;;5.93;2.43;;;7.30;62.70;;;;;;5016062;28;20546;-43
2022/03/19 06:12:14;;;;;;;3.20;2.40;;;7.30;63.00;;;;;;5018824;28;20502;-43
2022/03/19 06:14:41;;;;;;;4.93;2.60;;;7.30;62.90;;;;;;5017111;28;20462;-43
2022/03/19 06:17:07;;;;;;;5.27;2.40;;;7.30;63.10;;;;;;5016026;28;20849;-43
2022/03/19 06:19:34;;;;;;;4.70;2.40;;;7.30;63.00;;;;;;5004206;28;21274;-43
2022/03/19 06:22:01;;;;;;;3.23;2.17;;;7.40;62.40;;;;;;5015397;28;20972;-43
2022/03/19 06:24:28;;;;;;;3.90;2.10;;;7.30;62.80;;;;;;5018977;28;20870;-43
2022/03/19 06:26:54;;;;;;;2.93;2.50;;;7.40;63.00;;;;;;5022164;28;20963;-43
2022/03/19 06:29:22;;;;;;;8.27;2.70;;;7.40;63.30;;;;;;5014323;28;20973;-43
2022/03/19 06:31:49;;;;;;;3.60;2.53;;;7.40;63.40;;;;;;5015517;28;20500;-43
2022/03/19 06:34:16;;;;;;;4.90;2.27;;;7.50;63.30;;;;;;5018339;28;20452;-43
2022/03/19 06:39:29;;;;;;;5.60;2.60;;;7.50;63.10;;;;;;5015763;28;20456;-43
2022/03/19 06:41:55;;;;;;;4.73;2.43;;;7.50;63.30;;;;;;5003552;28;20996;-43
2022/03/19 06:44:23;;;;;;;5.17;3.03;;;7.50;62.80;;;;;;5017786;28;20468;-43
2022/03/19 06:46:49;;;;;;;6.77;3.43;;;7.50;62.90;;;;;;5018976;28;20488;-43
2022/03/19 06:49:16;;;;;;;3.43;2.10;;;7.50;63.30;;;;;;5019229;28;20508;-43
2022/03/19 06:51:43;;;;;;;3.70;2.80;;;7.50;63.30;;;;;;5017086;28;20495;-43
2022/03/19 06:54:10;;;;;;;3.00;2.57;;;7.60;63.20;;;;;;5020953;28;20956;-43
2022/03/19 06:56:36;;;;;;;7.13;3.27;;;7.70;62.50;;;;;;5016407;28;20505;-43
2022/03/19 06:59:03;;;;;;;6.93;3.10;;;7.70;62.60;;;;;;5017129;28;20464;-43
2022/03/19 07:01:30;;;;;;;4.20;2.70;;;7.80;63.10;;;;;;5030042;28;20474;-43
2022/03/19 07:03:57;;;;;;;5.77;3.20;;;7.90;62.90;;;;;;5014380;28;20475;-43
2022/03/19 07:06:24;;;;;;;3.67;2.70;;;7.90;62.90;;;;;;5018076;28;20468;-43
2022/03/19 07:09:10;;;;;;;6.20;3.67;;;7.90;62.60;;;;;;5018036;28;20460;-43
2022/03/19 07:11:37;;;;;;;6.33;2.87;;;7.90;62.20;;;;;;5019637;28;21027;-43
2022/03/19 07:14:05;;;;;;;5.30;3.27;;;8.00;62.30;;;;;;5018024;28;20579;-43
2022/03/19 07:16:32;;;;;;;4.17;3.10;;;8.00;62.70;;;;;;5014835;28;20455;-44
2022/03/19 07:18:59;;;;;;;5.40;3.27;;;8.10;62.50;;;;;;5002971;28;20845;-44
2022/03/19 07:21:26;;;;;;;5.30;3.30;;;8.20;62.20;;;;;;5021493;28;20455;-44
2022/03/19 07:23:53;;;;;;;5.00;3.80;;;8.30;62.40;;;;;;5033887;28;20468;-43
2022/03/19 07:26:19;;;;;;;7.13;3.57;;;8.30;62.40;;;;;;5002121;28;20466;-43
2022/03/19 07:28:46;;;;;;;7.03;3.50;;;8.30;62.60;;;;;;5018183;28;20456;-43
2022/03/19 07:31:14;;;;;;;8.20;4.40;;;8.40;62.40;;;;;;5020033;28;20484;-43
2022/03/19 07:33:41;;;;;;;8.80;3.20;;;8.50;62.10;;;;;;5014304;28;20835;-43
2022/03/19 07:36:08;;;;;;;7.10;3.90;;;8.60;62.10;;;;;;5014253;28;20463;-43
2022/03/19 07:38:35;;;;;;;8.13;4.10;;;8.60;62.40;;;;;;5002901;28;20479;-43
2022/03/19 07:43:47;;;;;;;8.20;4.33;;;8.80;62.10;;;;;;5016855;28;20509;-43
2022/03/19 07:46:14;;;;;;;6.40;3.63;;;8.80;61.30;;;;;;5012309;28;20533;-44
2022/03/19 07:48:40;;;;;;;6.93;4.50;;;8.90;61.30;;;;;;5012972;28;20471;-44
2022/03/19 07:51:08;;;;;;;6.80;4.00;;;9.00;60.90;;;;;;5015629;28;20496;-44
2022/03/19 07:53:37;;;;;;;6.60;3.50;;;9.10;61.50;;;;;;5018518;28;20462;-43
2022/03/19 07:56:04;;;;;;;5.77;4.23;;;9.20;61.20;;;;;;5003377;28;20981;-43
2022/03/19 07:58:30;;;;;;;8.80;4.40;;;9.30;61.00;;;;;;5033097;28;20458;-44
2022/03/19 08:00:57;;;;;;;5.73;3.73;;;9.40;61.30;;;;;;5011732;28;20471;-44
2022/03/19 08:03:24;;;;;;;8.10;4.20;;;9.60;60.60;;;;;;5017728;28;20555;-44
2022/03/19 08:05:51;;;;;;;5.70;3.70;;;9.70;60.30;;;;;;5017976;28;20459;-44
2022/03/19 08:08:18;;;;;;;6.50;3.70;;;9.80;59.40;;;;;;5017699;28;20463;-44
2022/03/19 08:10:45;;;;;;;13.47;3.90;;;10.00;59.50;;;;;;5014290;28;20463;-44
2022/03/19 08:13:12;;;;;;;6.80;4.07;;;10.10;58.10;;;;;;5021223;28;20558;-44
2022/03/19 08:15:41;;;;;;;5.37;3.70;;;10.20;58.20;;;;;;5022346;28;20952;-44
2022/03/19 08:18:10;;;;;;;5.50;3.53;;;10.30;57.40;;;;;;4997971;28;20513;-44
2022/03/19 08:20:39;;;;;;;8.13;4.27;;;10.50;57.90;;;;;;5015635;28;20463;-44
2022/03/19 08:23:06;;;;;;;5.73;4.03;;;10.60;57.80;;;;;;5008310;28;20455;-44
2022/03/19 08:25:32;;;;;;;5.77;4.03;;;10.80;57.20;;;;;;5017859;28;20483;-44
2022/03/19 08:28:00;;;;;;;5.70;4.27;;;11.00;57.10;;;;;;5015412;28;20987;-44
2022/03/19 08:30:31;;;;;;;9.10;4.77;;;11.10;56.80;;;;;;5018685;28;20449;-44
2022/03/19 08:32:58;;;;;;;7.70;4.67;;;11.30;55.60;;;;;;5014674;28;20492;-43
2022/03/19 08:35:25;;;;;;;5.87;4.67;;;11.40;55.70;;;;;;5015274;28;20466;-44
2022/03/19 08:40:37;;;;;;;7.23;4.30;;;11.70;55.00;;;;;;5012566;28;20465;-44
2022/03/19 08:43:04;;;;;;;7.40;4.10;;;11.90;53.80;;;;;;5019760;28;20467;-44
2022/03/19 08:45:31;;;;;;;5.30;3.87;;;12.10;53.50;;;;;;5013416;28;21244;-44
2022/03/19 08:47:57;;;;;;;6.90;4.57;;;12.30;53.20;;;;;;5005051;28;20484;-43
2022/03/19 08:50:27;;;;;;;6.60;4.13;;;12.40;52.90;;;;;;5018375;28;20850;-43
2022/03/19 08:52:54;;;;;;;8.30;4.50;;;12.60;52.80;;;;;;5014886;28;20600;-43
2022/03/19 08:55:20;;;;;;;6.00;3.80;;;12.70;52.10;;;;;;5002724;28;20786;-43
2022/03/19 08:57:47;;;;;;;8.17;3.90;;;12.80;51.10;;;;;;5009437;28;20474;-43
2022/03/19 09:00:14;;;;;;;6.10;5.50;;;12.90;51.30;;;;;;5019943;28;20456;-43
2022/03/19 09:02:42;;;;;;;8.67;4.20;;;13.10;51.00;;;;;;5019817;28;20464;-43
2022/03/19 09:05:10;;;;;;;9.07;4.67;;;13.20;50.60;;;;;;5020493;28;20451;-43
2022/03/19 09:07:37;;;;;;;6.23;4.20;;;13.30;50.60;;;;;;5021752;28;20471;-43
2022/03/19 09:10:05;;;;;;;9.50;5.20;;;13.50;50.50;;;;;;5019690;28;20462;-43
2022/03/19 09:12:34;;;;;;;9.97;5.70;;;13.50;49.30;;;;;;5021589;28;21055;-43
2022/03/19 09:15:02;;;;;;;7.33;4.27;;;13.40;49.30;;;;;;5017484;28;20451;-43
2022/03/19 09:17:28;;;;;;;4.80;4.20;;;13.40;49.70;;;;;;5017522;28;20462;-43
2022/03/19 09:19:55;;;;;;;9.13;4.60;;;13.50;50.40;;;;;;5020770;28;20456;-43
2022/03/19 09:22:22;;;;;;;8.27;4.60;;;13.60;50.30;;;;;;5004701;28;20461;-43
2022/03/19 09:24:48;;;;;;;5.40;4.20;;;13.70;50.00;;;;;;5021351;28;21254;-43
2022/03/19 09:27:15;;;;;;;6.10;4.40;;;13.90;49.60;;;;;;5018692;28;20564;-43
2022/03/19 09:29:42;;;;;;;7.37;4.30;;;13.90;48.90;;;;;;5015826;28;20491;-43
2022/03/19 09:32:11;;;;;;;5.83;4.13;;;13.90;49.10;;;;;;5018598;28;20519;-43
2022/03/19 09:34:39;;;;;;;5.07;4.53;;;14.00;49.20;;;;;;5019906;28;20938;-43
2022/03/19 09:37:06;;;;;;;6.60;4.97;;;14.10;49.20;;;;;;5017795;28;20905;-43
2022/03/19 09:39:34;;;;;;;6.03;4.40;;;14.10;48.30;;;;;;5006177;28;20457;-43
2022/03/19 09:42:02;;;;;;;7.60;4.10;;;14.20;48.60;;;;;;5015777;28;20459;-43
2022/03/19 09:44:30;;;;;;;6.80;3.80;;;14.20;48.70;;;;;;5021935;28;20708;-43
2022/03/19 09:46:57;;;;;;;8.43;5.03;;;14.30;47.70;;;;;;5004934;28;20860;-43
2022/03/19 09:49:24;;;;;;;7.20;3.90;;;14.40;48.60;;;;;;5018321;28;20523;-43
2022/03/19 09:51:53;;;;;;;8.57;4.20;;;14.60;48.90;;;;;;5019891;28;20479;-43
2022/03/19 09:54:22;;;;;;;6.77;4.37;;;14.70;47.50;;;;;;5018691;28;20459;-43
2022/03/19 09:56:50;;;;;;;6.27;4.03;;;14.90;47.70;;;;;;5014586;28;20946;-43
2022/03/19 09:59:17;;;;;;;6.53;4.60;;;15.20;47.30;;;;;;5023945;28;20797;-43
2022/03/19 10:01:47;;;;;;;7.40;4.40;;;15.30;47.20;;;;;;5015507;28;20472;-43
2022/03/19 10:04:20;;;;;;;4.57;3.93;;;15.40;46.20;;;;;;5021903;28;20467;-43
2022/03/19 10:09:46;;;;;;;8.23;5.17;;;15.50;45.30;;;;;;5010306;28;21230;-43
2022/03/19 10:12:20;;;;;;;6.70;4.60;;;15.60;45.70;;;;;;5002299;28;20558;-43
2022/03/19 10:14:53;;;;;;;6.90;5.10;;;15.80;45.70;;;;;;5002516;28;20644;-43
2022/03/19 10:17:27;;;;;;;6.03;4.63;;;15.80;46.50;;;;;;5015598;28;20499;-43
2022/03/19 10:19:59;;;;;;;5.70;4.40;;;16.10;46.70;;;;;;5018340;28;20500;-43
2022/03/19 10:22:28;;;;;;;7.63;4.87;;;16.40;45.50;;;;;;5017059;28;20540;-43
2022/03/19 10:25:01;;;;;;;13.00;4.40;;;16.60;45.10;;;;;;5032526;28;20578;-44
2022/03/19 10:27:35;;;;;;;7.50;5.40;;;16.80;44.30;;;;;;5013666;28;20467;-44
2022/03/19 10:30:09;;;;;;;5.87;4.70;;;17.10;43.70;;;;;;5019299;28;20463;-44
2022/03/19 10:32:39;;;;;;;7.87;4.93;;;17.30;42.60;;;;;;5018275;28;20488;-44
2022/03/19 10:35:30;;;;;;;6.80;4.70;;;17.50;42.70;;;;;;5015195;28;20467;-44
2022/03/19 10:38:00;;;;;;;7.37;4.70;;;17.80;41.80;;;;;;5018121;28;20466;-44
2022/03/19 10:40:41;;;;;;;5.20;4.47;;;18.00;40.10;;;;;;5015823;28;20897;-44
2022/03/19 10:43:10;;;;;;;5.13;4.23;;;18.10;39.60;;;;;;5014167;28;20691;-44
2022/03/19 10:45:49;;;;;;;5.73;3.90;;;18.10;39.50;;;;;;5016119;28;20591;-44
2022/03/19 10:48:22;;;;;;;5.03;3.73;;;18.40;40.50;;;;;;5031267;28;20449;-44
2022/03/19 10:50:50;;;;;;;5.00;3.60;;;18.60;38.90;;;;;;5016725;28;20464;-44
2022/03/19 10:53:18;;;;;;;6.37;3.47;;;18.70;38.70;;;;;;5032441;28;20489;-44
2022/03/19 10:55:45;;;;;;;4.27;3.87;;;18.90;38.20;;;;;;5014123;28;20468;-44
2022/03/19 10:58:13;;;;;;;5.07;3.70;;;19.00;38.20;;;;;;5020911;28;20884;-44
2022/03/19 11:01:01;;;;;;;7.67;4.23;;;19.10;37.30;;;;;;5010621;28;20465;-44
2022/03/19 11:03:30;;;;;;;4.30;3.23;;;19.10;36.30;;;;;;5002908;28;20492;-44
2022/03/19 11:06:04;;;;;;;128.87;16.23;;;19.20;36.40;;;;;;5034018;28;20983;-44
2022/03/19 11:08:37;;;;;;;7.87;4.37;;;19.20;36.50;;;;;;5015202;28;20835;-44
2022/03/19 11:11:34;;;;;;;4.60;3.60;;;19.30;36.70;;;;;;5019023;28;20460;-44
2022/03/19 11:14:02;;;;;;;4.77;3.70;;;19.30;36.50;;;;;;5012643;28;20452;-44
2022/03/19 11:16:37;;;;;;;5.20;3.80;;;19.30;35.70;;;;;;5019360;28;20458;-44
2022/03/19 11:19:08;;;;;;;6.60;4.33;;;19.20;37.20;;;;;;5015564;28;20458;-44
2022/03/19 11:21:35;;;;;;;7.23;4.47;;;19.30;37.40;;;;;;5016458;28;20550;-44
2022/03/19 11:24:22;;;;;;;12.20;4.97;;;19.30;37.70;;;;;;5017683;28;21060;-44
2022/03/19 11:26:51;;;;;;;6.80;4.20;;;19.20;36.50;;;;;;5018350;28;21092;-44
2022/03/19 11:29:19;;;;;;;8.53;4.33;;;19.20;37.30;;;;;;5013128;28;20572;-45
2022/03/19 11:31:58;;;;;;;5.20;4.20;;;19.30;37.70;;;;;;5019895;28;20459;-44
2022/03/19 11:34:25;;;;;;;7.20;4.30;;;19.20;37.70;;;;;;5016197;28;21230;-44
2022/03/19 11:37:02;;;;;;;6.00;4.70;;;19.20;37.00;;;;;;5016276;28;20470;-44
2022/03/19 11:39:28;;;;;;;5.20;4.40;;;18.90;37.60;;;;;;5019519;28;20467;-44
2022/03/19 11:41:55;;;;;;;7.03;3.93;;;18.80;37.80;;;;;;5018582;28;20463;-44
2022/03/19 11:44:24;;;;;;;5.87;4.20;;;18.60;36.70;;;;;;5004290;28;20531;-44
2022/03/19 11:46:56;;;;;;;7.50;4.33;;;18.50;36.20;;;;;;5001257;28;20514;-45
2022/03/19 11:49:52;;;;;;;9.17;4.00;;;18.30;36.70;;;;;;5014622;28;20525;-44
2022/03/19 11:52:26;;;;;;;7.47;3.43;;;18.10;36.30;;;;;;5017589;28;20500;-44
2022/03/19 11:55:03;;;;;;;15.03;5.20;;;17.80;36.10;;;;;;5024080;28;20478;-44
2022/03/19 11:57:58;;;;;;;3.50;2.37;;;17.60;35.30;;;;;;5003243;28;20506;-44
2022/03/19 12:00:27;;;;;;;3.23;2.10;;;17.50;36.20;;;;;;5017000;28;20460;-44
2022/03/19 12:03:08;;;;;;;3.30;2.27;;;17.50;36.00;;;;;;5014802;28;20460;-44
2022/03/19 12:05:43;;;;;;;4.67;2.70;;;17.50;35.10;;;;;;5018722;28;20465;-44
2022/03/19 12:08:18;;;;;;;4.93;2.43;;;17.50;34.40;;;;;;5030228;28;20471;-44
2022/03/19 12:10:59;;;;;;;2.90;2.17;;;17.40;33.40;;;;;;5018414;28;20550;-44
2022/03/19 12:13:26;;;;;;;3.00;1.80;;;17.30;34.20;;;;;;4996855;28;20488;-44
2022/03/19 12:15:58;;;;;;;2.00;1.70;;;17.20;35.20;;;;;;5014921;28;20534;-44
2022/03/19 12:18:41;;;;;;;2.43;1.93;;;17.20;34.30;;;;;;5018639;28;20487;-44
2022/03/19 12:21:11;;;;;;;5.33;2.00;;;17.20;33.70;;;;;;5017588;28;20550;-45
2022/03/19 12:23:42;;;;;;;3.53;2.20;;;17.10;33.60;;;;;;5018818;28;20486;-44
2022/03/19 12:26:10;;;;;;;2.53;1.47;;;16.90;32.20;;;;;;5020260;28;20525;-44
2022/03/19 12:28:37;;;;;;;2.50;1.57;;;16.90;32.80;;;;;;5022037;28;20519;-45
2022/03/19 12:31:06;;;;;;;2.80;1.50;;;16.80;33.00;;;;;;5020047;28;20841;-44
2022/03/19 12:33:33;;;;;;;2.40;1.43;;;16.90;32.60;;;;;;5017371;28;20488;-44
2022/03/19 12:36:14;;;;;;;1.90;1.67;;;16.90;32.80;;;;;;5007858;28;20451;-44
2022/03/19 12:38:41;;;;;;;2.13;1.67;;;16.90;32.30;;;;;;5001670;28;20570;-43
2022/03/19 12:41:28;;;;;;;2.40;1.40;;;16.90;31.70;;;;;;5021557;28;20459;-43
2022/03/19 12:44:24;;;;;;;2.30;1.50;;;16.90;31.70;;;;;;5010915;28;20552;-44
2022/03/19 12:47:07;;;;;;;3.37;1.60;;;16.90;32.60;;;;;;5019385;28;20491;-44
2022/03/19 12:49:35;;;;;;;1.80;1.70;;;17.00;32.10;;;;;;5017989;28;20490;-44
2022/03/19 12:52:14;;;;;;;2.73;1.57;;;17.00;31.30;;;;;;5024173;28;20455;-45
2022/03/19 12:54:55;;;;;;;3.73;1.90;;;16.90;31.10;;;;;;5016758;28;20503;-44
2022/03/19 12:57:25;;;;;;;4.60;2.23;;;16.80;31.40;;;;;;5016329;28;21341;-44
2022/03/19 12:59:57;;;;;;;2.87;2.07;;;16.70;31.40;;;;;;5018518;28;20498;-45
2022/03/19 13:02:25;;;;;;;3.50;2.00;;;16.60;31.80;;;;;;5018533;28;20471;-44
2022/03/19 13:04:53;;;;;;;4.67;1.63;;;16.50;31.80;;;;;;5020467;28;20466;-44
2022/03/19 13:07:22;;;;;;;3.37;2.30;;;16.40;32.60;;;;;;5020454;28;20492;-44
2022/03/19 13:09:49;;;;;;;3.13;1.70;;;16.30;33.40;;;;;;5015547;28;20485;-44
2022/03/19 13:12:21;;;;;;;1.70;1.30;;;16.30;33.40;;;;;;5021255;28;20467;-44
2022/03/19 13:14:54;;;;;;;1.70;1.60;;;16.30;33.80;;;;;;5022639;28;20499;-44
2022/03/19 13:17:22;;;;;;;3.00;1.83;;;16.20;32.60;;;;;;5021555;28;20444;-44
2022/03/19 13:19:49;;;;;;;2.07;1.73;;;16.20;32.50;;;;;;5032555;28;20539;-44
2022/03/19 13:22:20;;;;;;;3.17;2.47;;;16.10;31.70;;;;;;5019017;28;20540;-44